sensor_id;sensor_type;location;lat;lon;timestamp;P1;durP1;ratioP1;P2;durP2;ratioP2
18867;SDS011;9563;49.240;9.088;2023-02-28T00:01:04;6.00;;;2.40;;
18867;SDS011;9563;49.240;9.088;2023-02-28T00:03:31;5.90;;;2.57;;
18867;SDS011;9563;49.240;9.088;2023-02-28T00:06:01;5.97;;;2.40;;
18867;SDS011;9563;49.240;9.088;2023-02-28T00:08:29;6.40;;;2.60;;
18867;SDS011;9563;49.240;9.088;2023-02-28T00:10:59;4.23;;;2.27;;
18867;SDS011;9563;49.240;9.088;2023-02-28T00:13:27;7.77;;;3.20;;
18867;SDS011;9563;49.240;9.088;2023-02-28T00:16:01;5.17;;;3.10;;
18867;SDS011;9563;49.240;9.088;2023-02-28T00:18:28;4.57;;;2.53;;
18867;SDS011;9563;49.240;9.088;2023-02-28T00:20:56;4.47;;;2.77;;
18867;SDS011;9563;49.240;9.088;2023-02-28T00:23:24;5.17;;;2.70;;
18867;SDS011;9563;49.240;9.088;2023-02-28T00:25:51;6.03;;;2.40;;
18867;SDS011;9563;49.240;9.088;2023-02-28T00:28:20;6.40;;;2.50;;
18867;SDS011;9563;49.240;9.088;2023-02-28T00:30:47;5.73;;;2.97;;
18867;SDS011;9563;49.240;9.088;2023-02-28T00:33:15;4.00;;;2.60;;
18867;SDS011;9563;49.240;9.088;2023-02-28T00:35:42;8.97;;;3.50;;
18867;SDS011;9563;49.240;9.088;2023-02-28T00:38:12;5.03;;;2.93;;
18867;SDS011;9563;49.240;9.088;2023-02-28T00:40:38;5.73;;;2.70;;
18867;SDS011;9563;49.240;9.088;2023-02-28T00:43:05;5.37;;;3.20;;
18867;SDS011;9563;49.240;9.088;2023-02-28T00:45:34;5.63;;;2.73;;
18867;SDS011;9563;49.240;9.088;2023-02-28T00:48:00;5.23;;;2.80;;
18867;SDS011;9563;49.240;9.088;2023-02-28T00:50:27;7.57;;;3.10;;
18867;SDS011;9563;49.240;9.088;2023-02-28T00:52:54;5.50;;;3.13;;
18867;SDS011;9563;49.240;9.088;2023-02-28T00:55:21;4.20;;;2.60;;
18867;SDS011;9563;49.240;9.088;2023-02-28T00:57:48;6.20;;;3.23;;
18867;SDS011;9563;49.240;9.088;2023-02-28T01:00:15;4.30;;;2.40;;
18867;SDS011;9563;49.240;9.088;2023-02-28T01:02:43;4.77;;;2.53;;
18867;SDS011;9563;49.240;9.088;2023-02-28T01:05:10;5.10;;;2.70;;
18867;SDS011;9563;49.240;9.088;2023-02-28T01:07:37;6.57;;;3.43;;
18867;SDS011;9563;49.240;9.088;2023-02-28T01:10:04;4.73;;;3.20;;
18867;SDS011;9563;49.240;9.088;2023-02-28T01:12:31;5.10;;;3.27;;
18867;SDS011;9563;49.240;9.088;2023-02-28T01:14:58;5.07;;;3.13;;
18867;SDS011;9563;49.240;9.088;2023-02-28T01:17:25;5.97;;;3.00;;
18867;SDS011;9563;49.240;9.088;2023-02-28T01:19:54;7.77;;;3.17;;
18867;SDS011;9563;49.240;9.088;2023-02-28T01:22:22;6.27;;;3.13;;
18867;SDS011;9563;49.240;9.088;2023-02-28T01:24:49;4.50;;;3.00;;
18867;SDS011;9563;49.240;9.088;2023-02-28T01:27:15;4.63;;;3.10;;
18867;SDS011;9563;49.240;9.088;2023-02-28T01:29:42;6.53;;;3.60;;
18867;SDS011;9563;49.240;9.088;2023-02-28T01:32:09;9.50;;;3.70;;
18867;SDS011;9563;49.240;9.088;2023-02-28T01:34:36;5.20;;;3.57;;
18867;SDS011;9563;49.240;9.088;2023-02-28T01:37:04;4.87;;;3.20;;
18867;SDS011;9563;49.240;9.088;2023-02-28T01:39:31;4.90;;;3.40;;
18867;SDS011;9563;49.240;9.088;2023-02-28T01:41:58;6.83;;;3.40;;
18867;SDS011;9563;49.240;9.088;2023-02-28T01:47:28;7.40;;;3.30;;
18867;SDS011;9563;49.240;9.088;2023-02-28T01:49:58;5.60;;;3.00;;
18867;SDS011;9563;49.240;9.088;2023-02-28T01:52:28;6.07;;;3.73;;
18867;SDS011;9563;49.240;9.088;2023-02-28T01:54:55;6.40;;;3.67;;
18867;SDS011;9563;49.240;9.088;2023-02-28T01:57:25;4.90;;;2.80;;
18867;SDS011;9563;49.240;9.088;2023-02-28T02:00:05;6.93;;;3.40;;
18867;SDS011;9563;49.240;9.088;2023-02-28T02:02:35;5.67;;;3.43;;
18867;SDS011;9563;49.240;9.088;2023-02-28T02:05:04;5.83;;;3.20;;
18867;SDS011;9563;49.240;9.088;2023-02-28T02:07:34;6.13;;;3.10;;
18867;SDS011;9563;49.240;9.088;2023-02-28T02:10:04;6.37;;;3.60;;
18867;SDS011;9563;49.240;9.088;2023-02-28T02:12:43;7.57;;;3.50;;
18867;SDS011;9563;49.240;9.088;2023-02-28T02:15:42;7.00;;;3.57;;
18867;SDS011;9563;49.240;9.088;2023-02-28T02:18:19;5.53;;;3.80;;
18867;SDS011;9563;49.240;9.088;2023-02-28T02:21:16;10.10;;;3.43;;
18867;SDS011;9563;49.240;9.088;2023-02-28T02:24:15;6.80;;;3.40;;
18867;SDS011;9563;49.240;9.088;2023-02-28T02:27:05;6.83;;;3.43;;
18867;SDS011;9563;49.240;9.088;2023-02-28T02:32:59;4.03;;;2.80;;
18867;SDS011;9563;49.240;9.088;2023-02-28T02:35:39;7.13;;;3.20;;
18867;SDS011;9563;49.240;9.088;2023-02-28T02:38:27;6.73;;;2.80;;
18867;SDS011;9563;49.240;9.088;2023-02-28T02:41:02;6.03;;;3.33;;
18867;SDS011;9563;49.240;9.088;2023-02-28T02:43:36;7.13;;;3.03;;
18867;SDS011;9563;49.240;9.088;2023-02-28T02:46:10;6.33;;;3.43;;
18867;SDS011;9563;49.240;9.088;2023-02-28T02:48:41;6.70;;;3.20;;
18867;SDS011;9563;49.240;9.088;2023-02-28T02:51:13;7.13;;;3.50;;
18867;SDS011;9563;49.240;9.088;2023-02-28T02:53:42;6.83;;;3.30;;
18867;SDS011;9563;49.240;9.088;2023-02-28T02:56:15;6.80;;;3.47;;
18867;SDS011;9563;49.240;9.088;2023-02-28T02:58:45;6.03;;;3.30;;
18867;SDS011;9563;49.240;9.088;2023-02-28T03:01:16;6.30;;;3.20;;
18867;SDS011;9563;49.240;9.088;2023-02-28T03:03:53;5.47;;;3.43;;
18867;SDS011;9563;49.240;9.088;2023-02-28T03:06:23;9.20;;;3.93;;
18867;SDS011;9563;49.240;9.088;2023-02-28T03:08:50;7.07;;;3.63;;
18867;SDS011;9563;49.240;9.088;2023-02-28T03:11:17;7.80;;;3.57;;
18867;SDS011;9563;49.240;9.088;2023-02-28T03:13:52;5.53;;;3.00;;
18867;SDS011;9563;49.240;9.088;2023-02-28T03:16:35;6.43;;;3.20;;
18867;SDS011;9563;49.240;9.088;2023-02-28T03:19:18;7.17;;;3.60;;
18867;SDS011;9563;49.240;9.088;2023-02-28T03:22:00;7.07;;;4.00;;
18867;SDS011;9563;49.240;9.088;2023-02-28T03:24:43;7.00;;;3.27;;
18867;SDS011;9563;49.240;9.088;2023-02-28T03:27:17;6.77;;;3.60;;
18867;SDS011;9563;49.240;9.088;2023-02-28T03:29:50;7.03;;;3.87;;
18867;SDS011;9563;49.240;9.088;2023-02-28T03:32:24;7.00;;;4.00;;
18867;SDS011;9563;49.240;9.088;2023-02-28T03:34:55;7.03;;;3.93;;
18867;SDS011;9563;49.240;9.088;2023-02-28T03:37:30;6.47;;;3.97;;
18867;SDS011;9563;49.240;9.088;2023-02-28T03:40:01;7.10;;;4.30;;
18867;SDS011;9563;49.240;9.088;2023-02-28T03:42:34;5.93;;;3.87;;
18867;SDS011;9563;49.240;9.088;2023-02-28T03:45:04;6.67;;;3.93;;
18867;SDS011;9563;49.240;9.088;2023-02-28T03:47:35;6.73;;;4.10;;
18867;SDS011;9563;49.240;9.088;2023-02-28T03:50:07;8.20;;;4.43;;
18867;SDS011;9563;49.240;9.088;2023-02-28T03:52:38;9.60;;;4.50;;
18867;SDS011;9563;49.240;9.088;2023-02-28T03:55:11;7.97;;;4.23;;
18867;SDS011;9563;49.240;9.088;2023-02-28T03:57:43;11.13;;;4.50;;
18867;SDS011;9563;49.240;9.088;2023-02-28T04:00:17;9.00;;;4.47;;
18867;SDS011;9563;49.240;9.088;2023-02-28T04:02:47;8.50;;;4.60;;
18867;SDS011;9563;49.240;9.088;2023-02-28T04:05:17;7.67;;;4.37;;
18867;SDS011;9563;49.240;9.088;2023-02-28T04:07:46;8.47;;;4.50;;
18867;SDS011;9563;49.240;9.088;2023-02-28T04:10:13;8.77;;;4.77;;
18867;SDS011;9563;49.240;9.088;2023-02-28T04:12:41;9.20;;;5.17;;
18867;SDS011;9563;49.240;9.088;2023-02-28T04:15:08;6.40;;;4.33;;
18867;SDS011;9563;49.240;9.088;2023-02-28T04:17:36;8.47;;;4.47;;
18867;SDS011;9563;49.240;9.088;2023-02-28T04:20:03;7.43;;;4.60;;
18867;SDS011;9563;49.240;9.088;2023-02-28T04:22:34;6.97;;;4.20;;
18867;SDS011;9563;49.240;9.088;2023-02-28T04:25:04;7.13;;;4.20;;
18867;SDS011;9563;49.240;9.088;2023-02-28T04:27:32;6.87;;;3.97;;
18867;SDS011;9563;49.240;9.088;2023-02-28T04:30:18;7.57;;;3.90;;
18867;SDS011;9563;49.240;9.088;2023-02-28T04:32:45;9.07;;;4.73;;
18867;SDS011;9563;49.240;9.088;2023-02-28T04:35:11;6.97;;;3.93;;
18867;SDS011;9563;49.240;9.088;2023-02-28T04:37:38;8.63;;;4.40;;
18867;SDS011;9563;49.240;9.088;2023-02-28T04:40:08;7.60;;;3.83;;
18867;SDS011;9563;49.240;9.088;2023-02-28T04:42:35;9.73;;;4.77;;
18867;SDS011;9563;49.240;9.088;2023-02-28T04:45:03;8.27;;;4.73;;
18867;SDS011;9563;49.240;9.088;2023-02-28T04:47:30;10.63;;;4.63;;
18867;SDS011;9563;49.240;9.088;2023-02-28T04:49:57;8.77;;;4.53;;
18867;SDS011;9563;49.240;9.088;2023-02-28T04:52:24;7.43;;;4.23;;
18867;SDS011;9563;49.240;9.088;2023-02-28T04:54:51;8.27;;;4.63;;
18867;SDS011;9563;49.240;9.088;2023-02-28T04:57:19;8.10;;;4.70;;
18867;SDS011;9563;49.240;9.088;2023-02-28T04:59:45;8.73;;;4.70;;
18867;SDS011;9563;49.240;9.088;2023-02-28T05:02:12;7.47;;;4.43;;
18867;SDS011;9563;49.240;9.088;2023-02-28T05:04:39;8.50;;;4.83;;
18867;SDS011;9563;49.240;9.088;2023-02-28T05:07:06;10.33;;;4.97;;
18867;SDS011;9563;49.240;9.088;2023-02-28T05:09:33;10.60;;;5.00;;
18867;SDS011;9563;49.240;9.088;2023-02-28T05:12:00;11.10;;;5.23;;
18867;SDS011;9563;49.240;9.088;2023-02-28T05:14:28;9.00;;;4.53;;
18867;SDS011;9563;49.240;9.088;2023-02-28T05:16:55;7.90;;;4.90;;
18867;SDS011;9563;49.240;9.088;2023-02-28T05:19:22;8.40;;;4.60;;
18867;SDS011;9563;49.240;9.088;2023-02-28T05:21:49;8.83;;;4.10;;
18867;SDS011;9563;49.240;9.088;2023-02-28T05:24:18;9.97;;;4.63;;
18867;SDS011;9563;49.240;9.088;2023-02-28T05:26:48;10.07;;;4.90;;
18867;SDS011;9563;49.240;9.088;2023-02-28T05:29:16;9.03;;;4.80;;
18867;SDS011;9563;49.240;9.088;2023-02-28T05:31:45;12.97;;;5.03;;
18867;SDS011;9563;49.240;9.088;2023-02-28T05:34:12;8.77;;;4.63;;
18867;SDS011;9563;49.240;9.088;2023-02-28T05:36:41;7.93;;;4.70;;
18867;SDS011;9563;49.240;9.088;2023-02-28T05:39:08;8.67;;;4.80;;
18867;SDS011;9563;49.240;9.088;2023-02-28T05:41:38;9.67;;;4.90;;
18867;SDS011;9563;49.240;9.088;2023-02-28T05:44:06;10.40;;;4.33;;
18867;SDS011;9563;49.240;9.088;2023-02-28T05:46:33;9.80;;;4.47;;
18867;SDS011;9563;49.240;9.088;2023-02-28T05:49:01;11.53;;;5.30;;
18867;SDS011;9563;49.240;9.088;2023-02-28T05:51:29;9.10;;;4.70;;
18867;SDS011;9563;49.240;9.088;2023-02-28T05:54:00;7.20;;;4.37;;
18867;SDS011;9563;49.240;9.088;2023-02-28T05:56:28;8.63;;;4.57;;
18867;SDS011;9563;49.240;9.088;2023-02-28T05:58:55;8.53;;;4.50;;
18867;SDS011;9563;49.240;9.088;2023-02-28T06:01:24;7.43;;;4.23;;
18867;SDS011;9563;49.240;9.088;2023-02-28T06:03:57;9.77;;;4.83;;
18867;SDS011;9563;49.240;9.088;2023-02-28T06:06:26;8.37;;;4.90;;
18867;SDS011;9563;49.240;9.088;2023-02-28T06:08:53;7.57;;;4.50;;
18867;SDS011;9563;49.240;9.088;2023-02-28T06:11:20;8.70;;;4.73;;
18867;SDS011;9563;49.240;9.088;2023-02-28T06:13:52;10.10;;;4.70;;
18867;SDS011;9563;49.240;9.088;2023-02-28T06:16:20;7.40;;;4.20;;
18867;SDS011;9563;49.240;9.088;2023-02-28T06:18:47;9.03;;;4.50;;
18867;SDS011;9563;49.240;9.088;2023-02-28T06:21:14;8.23;;;4.60;;
18867;SDS011;9563;49.240;9.088;2023-02-28T06:23:42;7.23;;;4.80;;
18867;SDS011;9563;49.240;9.088;2023-02-28T06:26:09;10.40;;;5.20;;
18867;SDS011;9563;49.240;9.088;2023-02-28T06:28:36;8.73;;;4.53;;
18867;SDS011;9563;49.240;9.088;2023-02-28T06:31:07;9.23;;;4.83;;
18867;SDS011;9563;49.240;9.088;2023-02-28T06:33:34;10.47;;;5.47;;
18867;SDS011;9563;49.240;9.088;2023-02-28T06:36:01;10.27;;;4.60;;
18867;SDS011;9563;49.240;9.088;2023-02-28T06:38:28;8.60;;;5.43;;
18867;SDS011;9563;49.240;9.088;2023-02-28T06:40:57;7.90;;;4.60;;
18867;SDS011;9563;49.240;9.088;2023-02-28T06:43:25;7.03;;;4.70;;
18867;SDS011;9563;49.240;9.088;2023-02-28T06:45:53;11.73;;;5.60;;
18867;SDS011;9563;49.240;9.088;2023-02-28T06:48:21;10.30;;;5.30;;
18867;SDS011;9563;49.240;9.088;2023-02-28T06:50:48;9.83;;;5.10;;
18867;SDS011;9563;49.240;9.088;2023-02-28T06:53:15;9.90;;;4.87;;
18867;SDS011;9563;49.240;9.088;2023-02-28T06:55:42;8.23;;;4.60;;
18867;SDS011;9563;49.240;9.088;2023-02-28T06:58:11;9.70;;;5.10;;
18867;SDS011;9563;49.240;9.088;2023-02-28T07:00:40;9.93;;;5.03;;
18867;SDS011;9563;49.240;9.088;2023-02-28T07:03:07;11.37;;;5.77;;
18867;SDS011;9563;49.240;9.088;2023-02-28T07:05:34;7.90;;;4.93;;
18867;SDS011;9563;49.240;9.088;2023-02-28T07:08:01;9.07;;;4.87;;
18867;SDS011;9563;49.240;9.088;2023-02-28T07:10:28;7.77;;;5.00;;
18867;SDS011;9563;49.240;9.088;2023-02-28T07:12:55;9.47;;;5.17;;
18867;SDS011;9563;49.240;9.088;2023-02-28T07:15:23;11.93;;;5.13;;
18867;SDS011;9563;49.240;9.088;2023-02-28T07:17:50;7.83;;;5.13;;
18867;SDS011;9563;49.240;9.088;2023-02-28T07:20:17;8.50;;;4.90;;
18867;SDS011;9563;49.240;9.088;2023-02-28T07:22:45;9.67;;;5.47;;
18867;SDS011;9563;49.240;9.088;2023-02-28T07:25:20;7.60;;;4.80;;
18867;SDS011;9563;49.240;9.088;2023-02-28T07:27:46;7.37;;;4.60;;
18867;SDS011;9563;49.240;9.088;2023-02-28T07:30:13;6.47;;;4.17;;
18867;SDS011;9563;49.240;9.088;2023-02-28T07:32:42;11.57;;;4.63;;
18867;SDS011;9563;49.240;9.088;2023-02-28T07:35:09;7.83;;;4.87;;
18867;SDS011;9563;49.240;9.088;2023-02-28T07:37:36;9.87;;;5.20;;
18867;SDS011;9563;49.240;9.088;2023-02-28T07:40:03;7.57;;;4.57;;
18867;SDS011;9563;49.240;9.088;2023-02-28T07:42:33;8.70;;;5.30;;
18867;SDS011;9563;49.240;9.088;2023-02-28T07:45:01;8.80;;;4.70;;
18867;SDS011;9563;49.240;9.088;2023-02-28T07:47:28;9.87;;;5.17;;
18867;SDS011;9563;49.240;9.088;2023-02-28T07:49:57;9.57;;;5.43;;
18867;SDS011;9563;49.240;9.088;2023-02-28T07:52:24;8.27;;;4.80;;
18867;SDS011;9563;49.240;9.088;2023-02-28T07:54:52;7.27;;;4.73;;
18867;SDS011;9563;49.240;9.088;2023-02-28T07:57:18;12.67;;;5.97;;
18867;SDS011;9563;49.240;9.088;2023-02-28T07:59:45;10.13;;;5.17;;
18867;SDS011;9563;49.240;9.088;2023-02-28T08:02:13;13.57;;;5.43;;
18867;SDS011;9563;49.240;9.088;2023-02-28T08:04:40;8.20;;;4.70;;
18867;SDS011;9563;49.240;9.088;2023-02-28T08:07:09;11.63;;;5.60;;
18867;SDS011;9563;49.240;9.088;2023-02-28T08:09:38;10.20;;;6.00;;
18867;SDS011;9563;49.240;9.088;2023-02-28T08:12:05;9.93;;;5.27;;
18867;SDS011;9563;49.240;9.088;2023-02-28T08:14:32;10.43;;;5.23;;
18867;SDS011;9563;49.240;9.088;2023-02-28T08:17:00;9.90;;;5.03;;
18867;SDS011;9563;49.240;9.088;2023-02-28T08:19:27;12.17;;;6.40;;
18867;SDS011;9563;49.240;9.088;2023-02-28T08:21:54;9.43;;;5.40;;
18867;SDS011;9563;49.240;9.088;2023-02-28T08:24:22;9.73;;;5.37;;
18867;SDS011;9563;49.240;9.088;2023-02-28T08:26:49;11.50;;;5.93;;
18867;SDS011;9563;49.240;9.088;2023-02-28T08:29:16;9.77;;;5.67;;
18867;SDS011;9563;49.240;9.088;2023-02-28T08:31:43;10.63;;;5.40;;
18867;SDS011;9563;49.240;9.088;2023-02-28T08:34:11;9.43;;;5.40;;
18867;SDS011;9563;49.240;9.088;2023-02-28T08:36:39;9.83;;;4.97;;
18867;SDS011;9563;49.240;9.088;2023-02-28T08:39:07;11.77;;;5.80;;
18867;SDS011;9563;49.240;9.088;2023-02-28T08:41:36;14.10;;;5.93;;
18867;SDS011;9563;49.240;9.088;2023-02-28T08:44:03;9.70;;;5.80;;
18867;SDS011;9563;49.240;9.088;2023-02-28T08:46:30;10.73;;;6.10;;
18867;SDS011;9563;49.240;9.088;2023-02-28T08:48:57;11.77;;;5.53;;
18867;SDS011;9563;49.240;9.088;2023-02-28T08:51:26;8.30;;;5.23;;
18867;SDS011;9563;49.240;9.088;2023-02-28T08:53:54;11.70;;;6.27;;
18867;SDS011;9563;49.240;9.088;2023-02-28T08:56:24;8.93;;;5.83;;
18867;SDS011;9563;49.240;9.088;2023-02-28T08:58:54;10.83;;;5.53;;
18867;SDS011;9563;49.240;9.088;2023-02-28T09:01:23;11.77;;;5.70;;
18867;SDS011;9563;49.240;9.088;2023-02-28T09:03:51;14.20;;;6.03;;
18867;SDS011;9563;49.240;9.088;2023-02-28T09:06:19;12.17;;;6.10;;
18867;SDS011;9563;49.240;9.088;2023-02-28T09:08:47;12.03;;;5.97;;
18867;SDS011;9563;49.240;9.088;2023-02-28T09:11:14;8.50;;;5.53;;
18867;SDS011;9563;49.240;9.088;2023-02-28T09:13:41;9.53;;;6.00;;
18867;SDS011;9563;49.240;9.088;2023-02-28T09:16:11;9.50;;;5.30;;
18867;SDS011;9563;49.240;9.088;2023-02-28T09:18:41;10.70;;;5.97;;
18867;SDS011;9563;49.240;9.088;2023-02-28T09:21:09;10.63;;;6.10;;
18867;SDS011;9563;49.240;9.088;2023-02-28T09:23:39;11.73;;;6.13;;
18867;SDS011;9563;49.240;9.088;2023-02-28T09:26:06;11.30;;;6.03;;
18867;SDS011;9563;49.240;9.088;2023-02-28T09:28:33;9.80;;;5.60;;
18867;SDS011;9563;49.240;9.088;2023-02-28T09:31:00;11.30;;;5.53;;
18867;SDS011;9563;49.240;9.088;2023-02-28T09:33:31;9.80;;;6.37;;
18867;SDS011;9563;49.240;9.088;2023-02-28T09:35:59;10.60;;;5.13;;
18867;SDS011;9563;49.240;9.088;2023-02-28T09:38:27;11.70;;;6.20;;
18867;SDS011;9563;49.240;9.088;2023-02-28T09:40:55;9.83;;;5.70;;
18867;SDS011;9563;49.240;9.088;2023-02-28T09:43:25;9.90;;;6.23;;
18867;SDS011;9563;49.240;9.088;2023-02-28T09:45:55;10.33;;;5.67;;
18867;SDS011;9563;49.240;9.088;2023-02-28T09:48:28;10.57;;;6.37;;
18867;SDS011;9563;49.240;9.088;2023-02-28T09:51:00;11.37;;;6.40;;
18867;SDS011;9563;49.240;9.088;2023-02-28T09:53:30;10.10;;;6.10;;
18867;SDS011;9563;49.240;9.088;2023-02-28T09:56:01;12.77;;;6.20;;
18867;SDS011;9563;49.240;9.088;2023-02-28T09:58:32;15.37;;;7.37;;
18867;SDS011;9563;49.240;9.088;2023-02-28T10:01:06;12.40;;;6.80;;
18867;SDS011;9563;49.240;9.088;2023-02-28T10:03:45;9.80;;;6.20;;
18867;SDS011;9563;49.240;9.088;2023-02-28T10:06:16;11.03;;;5.80;;
18867;SDS011;9563;49.240;9.088;2023-02-28T10:08:49;11.87;;;6.20;;
18867;SDS011;9563;49.240;9.088;2023-02-28T10:11:20;11.60;;;6.10;;
18867;SDS011;9563;49.240;9.088;2023-02-28T10:13:50;9.50;;;5.57;;
18867;SDS011;9563;49.240;9.088;2023-02-28T10:16:22;9.73;;;5.63;;
18867;SDS011;9563;49.240;9.088;2023-02-28T10:18:56;10.90;;;6.40;;
18867;SDS011;9563;49.240;9.088;2023-02-28T10:21:28;10.47;;;6.20;;
18867;SDS011;9563;49.240;9.088;2023-02-28T10:24:03;10.33;;;6.10;;
18867;SDS011;9563;49.240;9.088;2023-02-28T10:26:37;9.90;;;6.20;;
18867;SDS011;9563;49.240;9.088;2023-02-28T10:29:07;11.20;;;5.97;;
18867;SDS011;9563;49.240;9.088;2023-02-28T10:31:34;11.37;;;5.77;;
18867;SDS011;9563;49.240;9.088;2023-02-28T10:34:03;12.13;;;6.17;;
18867;SDS011;9563;49.240;9.088;2023-02-28T10:36:31;9.77;;;6.33;;
18867;SDS011;9563;49.240;9.088;2023-02-28T10:38:58;11.97;;;6.97;;
18867;SDS011;9563;49.240;9.088;2023-02-28T10:41:29;12.10;;;6.23;;
18867;SDS011;9563;49.240;9.088;2023-02-28T10:44:12;10.53;;;6.37;;
18867;SDS011;9563;49.240;9.088;2023-02-28T10:46:41;10.93;;;5.93;;
18867;SDS011;9563;49.240;9.088;2023-02-28T10:49:13;9.07;;;6.20;;
18867;SDS011;9563;49.240;9.088;2023-02-28T10:51:43;12.10;;;6.63;;
18867;SDS011;9563;49.240;9.088;2023-02-28T10:54:18;12.23;;;7.00;;
18867;SDS011;9563;49.240;9.088;2023-02-28T10:57:07;9.30;;;6.20;;
18867;SDS011;9563;49.240;9.088;2023-02-28T10:59:40;12.70;;;6.40;;
18867;SDS011;9563;49.240;9.088;2023-02-28T11:08:03;11.63;;;6.57;;
18867;SDS011;9563;49.240;9.088;2023-02-28T11:10:32;10.53;;;6.53;;
18867;SDS011;9563;49.240;9.088;2023-02-28T11:12:59;14.70;;;6.67;;
18867;SDS011;9563;49.240;9.088;2023-02-28T11:15:29;12.30;;;7.07;;
18867;SDS011;9563;49.240;9.088;2023-02-28T11:17:57;14.30;;;7.03;;
18867;SDS011;9563;49.240;9.088;2023-02-28T11:20:28;12.97;;;7.10;;
18867;SDS011;9563;49.240;9.088;2023-02-28T11:22:58;10.43;;;6.40;;
18867;SDS011;9563;49.240;9.088;2023-02-28T11:25:29;11.67;;;7.13;;
18867;SDS011;9563;49.240;9.088;2023-02-28T11:27:58;11.70;;;7.10;;
18867;SDS011;9563;49.240;9.088;2023-02-28T11:30:34;13.53;;;7.60;;
18867;SDS011;9563;49.240;9.088;2023-02-28T11:33:18;11.70;;;6.90;;
18867;SDS011;9563;49.240;9.088;2023-02-28T11:35:50;11.93;;;7.00;;
18867;SDS011;9563;49.240;9.088;2023-02-28T11:38:18;11.90;;;7.57;;
18867;SDS011;9563;49.240;9.088;2023-02-28T11:40:46;13.70;;;6.87;;
18867;SDS011;9563;49.240;9.088;2023-02-28T11:43:27;12.03;;;6.80;;
18867;SDS011;9563;49.240;9.088;2023-02-28T11:46:05;13.67;;;7.33;;
18867;SDS011;9563;49.240;9.088;2023-02-28T11:48:43;12.53;;;7.40;;
18867;SDS011;9563;49.240;9.088;2023-02-28T11:51:22;14.07;;;7.47;;
18867;SDS011;9563;49.240;9.088;2023-02-28T11:56:53;14.23;;;7.43;;
18867;SDS011;9563;49.240;9.088;2023-02-28T11:59:30;11.67;;;7.67;;
18867;SDS011;9563;49.240;9.088;2023-02-28T12:02:11;12.50;;;7.63;;
18867;SDS011;9563;49.240;9.088;2023-02-28T12:04:52;14.23;;;7.47;;
18867;SDS011;9563;49.240;9.088;2023-02-28T12:07:30;13.13;;;6.83;;
18867;SDS011;9563;49.240;9.088;2023-02-28T12:10:06;15.10;;;7.10;;
18867;SDS011;9563;49.240;9.088;2023-02-28T12:12:44;11.90;;;7.53;;
18867;SDS011;9563;49.240;9.088;2023-02-28T12:15:24;11.90;;;7.77;;
18867;SDS011;9563;49.240;9.088;2023-02-28T12:18:02;15.77;;;8.87;;
18867;SDS011;9563;49.240;9.088;2023-02-28T12:20:44;12.57;;;7.40;;
18867;SDS011;9563;49.240;9.088;2023-02-28T12:23:22;13.40;;;8.27;;
18867;SDS011;9563;49.240;9.088;2023-02-28T12:26:12;17.00;;;8.03;;
18867;SDS011;9563;49.240;9.088;2023-02-28T12:28:44;11.70;;;7.33;;
18867;SDS011;9563;49.240;9.088;2023-02-28T12:31:16;11.07;;;7.20;;
18867;SDS011;9563;49.240;9.088;2023-02-28T12:33:50;13.27;;;7.13;;
18867;SDS011;9563;49.240;9.088;2023-02-28T12:36:20;17.70;;;7.47;;
18867;SDS011;9563;49.240;9.088;2023-02-28T12:38:51;14.77;;;8.73;;
18867;SDS011;9563;49.240;9.088;2023-02-28T12:41:22;13.90;;;8.07;;
18867;SDS011;9563;49.240;9.088;2023-02-28T12:43:58;12.90;;;7.50;;
18867;SDS011;9563;49.240;9.088;2023-02-28T12:46:29;14.57;;;7.30;;
18867;SDS011;9563;49.240;9.088;2023-02-28T12:49:00;15.10;;;8.17;;
18867;SDS011;9563;49.240;9.088;2023-02-28T12:51:33;13.87;;;7.27;;
18867;SDS011;9563;49.240;9.088;2023-02-28T12:54:07;13.87;;;7.83;;
18867;SDS011;9563;49.240;9.088;2023-02-28T12:56:42;13.07;;;8.03;;
18867;SDS011;9563;49.240;9.088;2023-02-28T12:59:16;13.53;;;7.70;;
18867;SDS011;9563;49.240;9.088;2023-02-28T13:02:09;14.27;;;7.47;;
18867;SDS011;9563;49.240;9.088;2023-02-28T13:08:11;15.57;;;8.30;;
18867;SDS011;9563;49.240;9.088;2023-02-28T13:11:06;13.53;;;7.80;;
18867;SDS011;9563;49.240;9.088;2023-02-28T13:13:48;14.70;;;8.83;;
18867;SDS011;9563;49.240;9.088;2023-02-28T13:16:24;14.13;;;7.90;;
18867;SDS011;9563;49.240;9.088;2023-02-28T13:18:51;15.13;;;8.60;;
18867;SDS011;9563;49.240;9.088;2023-02-28T13:21:22;14.53;;;8.30;;
18867;SDS011;9563;49.240;9.088;2023-02-28T13:24:00;14.57;;;8.57;;
18867;SDS011;9563;49.240;9.088;2023-02-28T13:29:39;13.10;;;7.60;;
18867;SDS011;9563;49.240;9.088;2023-02-28T13:32:18;13.70;;;8.27;;
18867;SDS011;9563;49.240;9.088;2023-02-28T13:44:08;14.97;;;7.93;;
18867;SDS011;9563;49.240;9.088;2023-02-28T13:49:41;13.23;;;8.07;;
18867;SDS011;9563;49.240;9.088;2023-02-28T13:52:10;12.30;;;7.57;;
18867;SDS011;9563;49.240;9.088;2023-02-28T13:54:45;13.47;;;8.07;;
18867;SDS011;9563;49.240;9.088;2023-02-28T13:57:25;14.97;;;8.10;;
18867;SDS011;9563;49.240;9.088;2023-02-28T14:00:02;14.17;;;8.80;;
18867;SDS011;9563;49.240;9.088;2023-02-28T14:08:52;16.17;;;8.87;;
18867;SDS011;9563;49.240;9.088;2023-02-28T14:11:24;12.23;;;7.80;;
18867;SDS011;9563;49.240;9.088;2023-02-28T14:13:56;13.47;;;8.57;;
18867;SDS011;9563;49.240;9.088;2023-02-28T14:16:24;13.57;;;8.70;;
18867;SDS011;9563;49.240;9.088;2023-02-28T14:18:55;14.23;;;7.97;;
18867;SDS011;9563;49.240;9.088;2023-02-28T14:21:25;15.07;;;8.53;;
18867;SDS011;9563;49.240;9.088;2023-02-28T14:24:16;14.87;;;8.63;;
18867;SDS011;9563;49.240;9.088;2023-02-28T14:27:09;16.50;;;9.10;;
18867;SDS011;9563;49.240;9.088;2023-02-28T14:30:08;12.20;;;8.10;;
18867;SDS011;9563;49.240;9.088;2023-02-28T14:32:43;13.27;;;7.80;;
18867;SDS011;9563;49.240;9.088;2023-02-28T14:35:18;15.00;;;8.23;;
18867;SDS011;9563;49.240;9.088;2023-02-28T14:37:55;15.83;;;7.70;;
18867;SDS011;9563;49.240;9.088;2023-02-28T14:40:27;13.53;;;7.87;;
18867;SDS011;9563;49.240;9.088;2023-02-28T14:42:58;15.33;;;8.73;;
18867;SDS011;9563;49.240;9.088;2023-02-28T14:45:27;14.47;;;7.63;;
18867;SDS011;9563;49.240;9.088;2023-02-28T14:47:56;13.33;;;8.30;;
18867;SDS011;9563;49.240;9.088;2023-02-28T14:50:27;16.20;;;8.13;;
18867;SDS011;9563;49.240;9.088;2023-02-28T14:52:56;15.90;;;8.87;;
18867;SDS011;9563;49.240;9.088;2023-02-28T14:55:26;13.07;;;8.10;;
18867;SDS011;9563;49.240;9.088;2023-02-28T14:57:56;13.93;;;8.17;;
18867;SDS011;9563;49.240;9.088;2023-02-28T15:00:25;17.43;;;8.33;;
18867;SDS011;9563;49.240;9.088;2023-02-28T15:02:53;13.97;;;8.17;;
18867;SDS011;9563;49.240;9.088;2023-02-28T15:05:28;14.17;;;8.13;;
18867;SDS011;9563;49.240;9.088;2023-02-28T15:08:09;14.10;;;8.37;;
18867;SDS011;9563;49.240;9.088;2023-02-28T15:10:40;15.40;;;8.63;;
18867;SDS011;9563;49.240;9.088;2023-02-28T15:13:11;12.23;;;7.50;;
18867;SDS011;9563;49.240;9.088;2023-02-28T15:15:42;14.23;;;8.07;;
18867;SDS011;9563;49.240;9.088;2023-02-28T15:18:15;12.60;;;8.03;;
18867;SDS011;9563;49.240;9.088;2023-02-28T15:20:49;14.37;;;8.13;;
18867;SDS011;9563;49.240;9.088;2023-02-28T15:23:17;13.50;;;7.70;;
18867;SDS011;9563;49.240;9.088;2023-02-28T15:25:47;11.20;;;7.30;;
18867;SDS011;9563;49.240;9.088;2023-02-28T15:28:17;10.70;;;7.30;;
18867;SDS011;9563;49.240;9.088;2023-02-28T15:30:53;15.10;;;7.97;;
18867;SDS011;9563;49.240;9.088;2023-02-28T15:33:22;12.40;;;7.53;;
18867;SDS011;9563;49.240;9.088;2023-02-28T15:35:51;14.60;;;7.97;;
18867;SDS011;9563;49.240;9.088;2023-02-28T15:38:33;17.23;;;8.23;;
18867;SDS011;9563;49.240;9.088;2023-02-28T15:41:03;12.17;;;7.80;;
18867;SDS011;9563;49.240;9.088;2023-02-28T15:43:36;13.40;;;7.73;;
18867;SDS011;9563;49.240;9.088;2023-02-28T15:46:04;12.93;;;7.80;;
18867;SDS011;9563;49.240;9.088;2023-02-28T15:48:35;13.40;;;7.80;;
18867;SDS011;9563;49.240;9.088;2023-02-28T15:51:06;12.47;;;7.67;;
18867;SDS011;9563;49.240;9.088;2023-02-28T15:53:35;13.87;;;8.23;;
18867;SDS011;9563;49.240;9.088;2023-02-28T15:56:22;12.83;;;7.90;;
18867;SDS011;9563;49.240;9.088;2023-02-28T15:58:53;16.07;;;8.50;;